createdAt,value
2023-03-25T00:01:12.831Z,99314.53
2023-03-25T00:03:50.292Z,99316.34
2023-03-25T00:06:22.812Z,99310.30
2023-03-25T00:08:56.437Z,99309.26
2023-03-25T00:11:29.238Z,99306.87
2023-03-25T00:14:01.737Z,99300.84
2023-03-25T00:16:34.453Z,99307.99
2023-03-25T00:19:07.072Z,99300.42
2023-03-25T00:21:40.143Z,99303.12
2023-03-25T00:24:15.172Z,99301.51
2023-03-25T00:26:48.805Z,99304.19
2023-03-25T00:29:21.954Z,99305.36
2023-03-25T00:31:54.525Z,99311.76
2023-03-25T00:34:27.572Z,99317.16
2023-03-25T00:37:00.170Z,99308.58
2023-03-25T00:39:33.017Z,99309.37
2023-03-25T00:42:06.624Z,99311.21
2023-03-25T00:44:39.830Z,99308.13
2023-03-25T00:47:13.978Z,99301.28
2023-03-25T00:49:46.969Z,99302.97
2023-03-25T00:52:21.860Z,99303.28
2023-03-25T00:54:54.353Z,99295.07
2023-03-25T00:57:26.898Z,99290.33
2023-03-25T01:00:00.297Z,99292.41
2023-03-25T01:02:34.085Z,99296.16
2023-03-25T01:05:07.971Z,99295.49
2023-03-25T01:07:42.087Z,99293.48
2023-03-25T01:10:14.926Z,99287.66
2023-03-25T01:12:47.590Z,99290.98
2023-03-25T01:15:20.455Z,99301.98
2023-03-25T01:17:55.192Z,99280.67
2023-03-25T01:20:29.068Z,99292.35
2023-03-25T01:23:01.825Z,99291.36
2023-03-25T01:25:34.843Z,99290.00
2023-03-25T01:28:07.947Z,99290.70
2023-03-25T01:30:41.041Z,99292.57
2023-03-25T01:33:14.180Z,99292.45
2023-03-25T01:35:47.997Z,99292.00
2023-03-25T01:38:21.749Z,99293.20
2023-03-25T01:40:54.684Z,99288.66
2023-03-25T01:43:27.205Z,99287.67
2023-03-25T01:46:00.009Z,99286.17
2023-03-25T01:48:40.813Z,99288.42
2023-03-25T01:51:17.997Z,99286.27
2023-03-25T01:53:51.634Z,99291.41
2023-03-25T01:56:44.683Z,99292.97
2023-03-25T01:59:19.402Z,99288.38
2023-03-25T02:01:52.070Z,99287.39
2023-03-25T02:04:57.480Z,99291.37
2023-03-25T02:07:31.199Z,99284.53
2023-03-25T02:10:08.004Z,99289.49
2023-03-25T02:12:41.684Z,99283.35
2023-03-25T02:15:16.654Z,99273.84
2023-03-25T02:17:54.942Z,99282.42
2023-03-25T02:20:52.086Z,99287.03
2023-03-25T02:23:55.954Z,99283.48
2023-03-25T02:26:49.784Z,99277.77
2023-03-25T02:29:29.639Z,99287.89
2023-03-25T02:32:29.665Z,99286.39
2023-03-25T02:35:19.044Z,99286.44
2023-03-25T02:38:30.737Z,99277.57
2023-03-25T02:41:26.108Z,99268.87
2023-03-25T02:44:08.140Z,99267.69
2023-03-25T02:46:49.296Z,99255.39
2023-03-25T02:49:30.977Z,99260.18
2023-03-25T02:52:14.314Z,99260.74
2023-03-25T02:54:47.771Z,99260.74
2023-03-25T02:57:21.615Z,99266.39
2023-03-25T03:00:00.111Z,99276.68
2023-03-25T03:02:34.191Z,99269.65
2023-03-25T03:05:26.514Z,99266.09
2023-03-25T03:08:25.290Z,99264.91
2023-03-25T03:11:20.601Z,99254.49
2023-03-25T03:14:14.041Z,99259.28
2023-03-25T03:17:38.958Z,99268.89
2023-03-25T03:20:16.357Z,99267.90
2023-03-25T03:23:01.807Z,99265.53
2023-03-25T03:25:50.739Z,99264.52
2023-03-25T03:28:34.742Z,99258.70
2023-03-25T03:31:15.687Z,99256.53
2023-03-25T03:34:01.296Z,99250.30
2023-03-25T03:36:37.873Z,99251.17
2023-03-25T03:39:36.429Z,99250.67
2023-03-25T03:42:25.029Z,99242.89
2023-03-25T03:45:02.618Z,99248.36
2023-03-25T03:47:39.787Z,99247.55
2023-03-25T03:50:22.164Z,99241.14
2023-03-25T03:53:03.194Z,99242.69
2023-03-25T03:55:52.625Z,99233.85
2023-03-25T03:58:33.586Z,99239.33
2023-03-25T04:01:10.839Z,99240.41
2023-03-25T04:03:51.143Z,99247.60
2023-03-25T04:06:46.888Z,99244.38
2023-03-25T04:09:28.324Z,99244.59
2023-03-25T04:12:06.388Z,99237.59
2023-03-25T04:14:40.086Z,99248.52
2023-03-25T04:17:12.870Z,99250.73
2023-03-25T04:19:47.066Z,99256.52
2023-03-25T04:22:22.042Z,99259.06
2023-03-25T04:24:56.368Z,99261.97
2023-03-25T04:27:30.119Z,99253.47
2023-03-25T04:30:05.142Z,99255.88
2023-03-25T04:32:37.868Z,99253.97
2023-03-25T04:35:11.816Z,99254.16
2023-03-25T04:37:50.021Z,99256.23
2023-03-25T04:40:24.456Z,99258.96
2023-03-25T04:42:58.675Z,99264.78
2023-03-25T04:45:32.866Z,99254.37
2023-03-25T04:48:06.343Z,99253.87
2023-03-25T04:50:39.655Z,99249.09
2023-03-25T04:53:12.090Z,99254.92
2023-03-25T04:55:46.937Z,99241.13
2023-03-25T04:58:20.045Z,99244.36
2023-03-25T05:00:54.147Z,99242.17
2023-03-25T05:03:28.068Z,99229.36
2023-03-25T05:06:00.871Z,99251.19
2023-03-25T05:08:35.138Z,99254.95
2023-03-25T05:11:08.111Z,99245.08
2023-03-25T05:13:41.112Z,99233.81
2023-03-25T05:16:13.666Z,99223.95
2023-03-25T05:18:46.179Z,99223.95
2023-03-25T05:21:19.261Z,99217.13
2023-03-25T05:23:52.847Z,99217.45
2023-03-25T05:26:26.105Z,99219.85
2023-03-25T05:29:00.757Z,99224.63
2023-03-25T05:31:33.554Z,99233.13
2023-03-25T05:34:08.858Z,99221.53
2023-03-25T05:36:41.977Z,99217.40
2023-03-25T05:39:14.526Z,99216.31
2023-03-25T05:41:47.054Z,99208.44
2023-03-25T05:44:20.142Z,99205.98
2023-03-25T05:46:53.054Z,99209.20
2023-03-25T05:49:25.520Z,99207.66
2023-03-25T05:52:00.305Z,99200.52
2023-03-25T05:54:33.678Z,99207.03
2023-03-25T05:57:07.447Z,99206.39
2023-03-25T05:59:40.912Z,99211.39
2023-03-25T06:02:33.512Z,99208.13
2023-03-25T06:05:16.519Z,99206.08
2023-03-25T06:07:50.022Z,99207.63
2023-03-25T06:10:23.451Z,99203.39
2023-03-25T06:12:56.186Z,99199.84
2023-03-25T06:15:33.931Z,99196.97
2023-03-25T06:18:07.748Z,99194.94
2023-03-25T06:20:40.393Z,99187.48
2023-03-25T06:23:13.460Z,99185.79
2023-03-25T06:25:47.791Z,99179.84
2023-03-25T06:28:21.562Z,99180.88
2023-03-25T06:30:54.823Z,99182.11
2023-03-25T06:33:43.283Z,99178.02
2023-03-25T06:36:02.824Z,99180.61
2023-03-25T06:38:36.073Z,99181.84
2023-03-25T06:41:10.195Z,99174.92
2023-03-25T06:43:44.663Z,99175.49
2023-03-25T06:46:22.648Z,99178.94
2023-03-25T06:49:06.214Z,99176.58
2023-03-25T06:51:39.765Z,99177.94
2023-03-25T06:54:12.796Z,99183.03
2023-03-25T06:56:45.389Z,99188.13
2023-03-25T06:59:17.882Z,99175.31
2023-03-25T07:01:50.565Z,99183.60
2023-03-25T07:04:23.436Z,99181.02
2023-03-25T07:06:57.823Z,99178.75
2023-03-25T07:09:30.401Z,99182.15
2023-03-25T07:12:02.847Z,99176.11
2023-03-25T07:14:35.960Z,99172.47
2023-03-25T07:17:08.695Z,99180.42
2023-03-25T07:19:43.737Z,99175.55
2023-03-25T07:22:16.917Z,99180.69
2023-03-25T07:24:49.859Z,99163.50
2023-03-25T07:27:23.806Z,99177.11
2023-03-25T07:29:58.854Z,99167.88
2023-03-25T07:32:31.511Z,99160.88
2023-03-25T07:35:05.835Z,99157.90
2023-03-25T07:37:38.461Z,99157.02
2023-03-25T07:40:23.143Z,99150.20
2023-03-25T07:42:56.627Z,99143.35
2023-03-25T07:45:30.966Z,99151.80
2023-03-25T07:48:05.892Z,99143.92
2023-03-25T07:50:39.542Z,99155.91
2023-03-25T07:53:11.976Z,99144.34
2023-03-25T07:58:38.846Z,99130.67
2023-03-25T08:01:11.422Z,99136.71
2023-03-25T08:06:28.269Z,99129.72
2023-03-25T08:09:00.595Z,99132.06
2023-03-25T08:11:34.417Z,99123.20
2023-03-25T08:14:06.954Z,99132.06
2023-03-25T08:16:39.386Z,99117.03
2023-03-25T08:19:11.852Z,99116.72
2023-03-25T08:21:45.053Z,99113.44
2023-03-25T08:24:18.031Z,99114.77
2023-03-25T08:26:51.276Z,99118.80
2023-03-25T08:29:24.774Z,99106.55
2023-03-25T08:31:57.795Z,99103.52
2023-03-25T08:34:32.880Z,99110.75
2023-03-25T08:37:07.656Z,99108.96
2023-03-25T08:39:42.365Z,99103.45
2023-03-25T08:42:15.623Z,99096.93
2023-03-25T08:44:48.130Z,99088.59
2023-03-25T08:47:21.311Z,99085.13
2023-03-25T08:49:54.438Z,99082.00
2023-03-25T08:52:28.261Z,99086.22
2023-03-25T08:55:01.177Z,99098.48
2023-03-25T08:57:34.280Z,99099.31
2023-03-25T09:00:12.926Z,99099.31
2023-03-25T09:02:46.549Z,99086.77
2023-03-25T09:05:20.148Z,99082.98
2023-03-25T09:07:53.362Z,99079.49
2023-03-25T09:10:25.959Z,99084.11
2023-03-25T09:12:59.268Z,99092.82
2023-03-25T09:15:32.316Z,99094.73
2023-03-25T09:18:06.027Z,99095.91
2023-03-25T09:20:39.385Z,99093.92
2023-03-25T09:23:12.283Z,99086.37
2023-03-25T09:25:46.404Z,99083.17
2023-03-25T09:28:19.692Z,99076.33
2023-03-25T09:30:52.307Z,99075.86
2023-03-25T09:33:27.335Z,99075.93
2023-03-25T09:36:00.329Z,99071.73
2023-03-25T09:38:33.313Z,99066.02
2023-03-25T09:41:26.986Z,99066.48
2023-03-25T09:44:30.993Z,99061.94
2023-03-25T09:47:04.196Z,99050.99
2023-03-25T09:49:46.404Z,99057.33
2023-03-25T09:52:23.895Z,99052.80
2023-03-25T09:55:03.159Z,99071.49
2023-03-25T09:57:41.834Z,99064.19
2023-03-25T10:00:36.084Z,99051.56
2023-03-25T10:03:23.349Z,99056.84
2023-03-25T10:06:17.999Z,99054.66
2023-03-25T10:09:27.508Z,99049.86
2023-03-25T10:12:48.126Z,99044.67
2023-03-25T10:15:40.567Z,99028.65
2023-03-25T10:18:30.178Z,99029.94
2023-03-25T10:21:28.423Z,99030.59
2023-03-25T10:24:21.415Z,99029.54
2023-03-25T10:27:42.090Z,99034.04
2023-03-25T10:30:36.393Z,99038.88
2023-03-25T10:33:17.684Z,99023.89
2023-03-25T10:35:52.133Z,99019.78
2023-03-25T10:38:26.268Z,99017.19
2023-03-25T10:41:33.044Z,99024.27
2023-03-25T10:44:12.400Z,99026.09
2023-03-25T10:47:19.989Z,99020.66
2023-03-25T10:49:52.876Z,99015.78
2023-03-25T10:52:25.338Z,99012.56
2023-03-25T10:54:58.486Z,99005.78
2023-03-25T10:57:31.845Z,99003.17
2023-03-25T11:00:35.291Z,99003.73
2023-03-25T11:03:13.095Z,98995.46
2023-03-25T11:05:46.039Z,98993.45
2023-03-25T11:08:24.419Z,98988.13
2023-03-25T11:11:00.154Z,98983.22
2023-03-25T11:13:33.181Z,98983.92
2023-03-25T11:16:07.661Z,98981.31
2023-03-25T11:18:43.396Z,98981.12
2023-03-25T11:21:15.975Z,98972.92
2023-03-25T11:23:51.706Z,98975.49
2023-03-25T11:26:30.448Z,98978.41
2023-03-25T11:29:12.321Z,98975.12
2023-03-25T11:31:45.743Z,98970.96
2023-03-25T11:34:24.292Z,98973.20
2023-03-25T11:37:18.787Z,98965.50
2023-03-25T11:39:56.193Z,98969.52
2023-03-25T11:42:52.428Z,98965.72
2023-03-25T11:45:54.963Z,98967.51
2023-03-25T11:48:31.409Z,98964.57
2023-03-25T11:51:05.250Z,98976.06
2023-03-25T11:53:38.365Z,98982.26
2023-03-25T11:56:13.274Z,98979.63
2023-03-25T11:58:45.950Z,98971.37
2023-03-25T12:01:31.979Z,98970.80
2023-03-25T12:04:23.660Z,98974.05
2023-03-25T12:07:02.385Z,98964.80
2023-03-25T12:09:35.687Z,98963.95
2023-03-25T12:12:16.862Z,98970.19
2023-03-25T12:15:09.253Z,98975.48
2023-03-25T12:18:19.869Z,98980.05
2023-03-25T12:21:27.212Z,98980.14
2023-03-25T12:24:36.852Z,98966.75
2023-03-25T12:27:38.420Z,98970.39
2023-03-25T12:30:38.441Z,98969.20
2023-03-25T12:33:28.609Z,98968.98
2023-03-25T12:36:32.764Z,98968.88
2023-03-25T12:39:42.622Z,98971.28
2023-03-25T12:42:31.601Z,98965.80
2023-03-25T12:45:31.780Z,98964.44
2023-03-25T12:48:18.792Z,98965.59
2023-03-25T12:51:01.524Z,98958.61
2023-03-25T12:54:00.044Z,98954.09
2023-03-25T12:57:08.354Z,98953.98
2023-03-25T12:59:59.193Z,98952.06
2023-03-25T13:03:03.889Z,98955.82
2023-03-25T13:06:18.445Z,98964.85
2023-03-25T13:09:16.659Z,98967.38
2023-03-25T13:12:00.570Z,98956.17
2023-03-25T13:15:15.127Z,98954.05
2023-03-25T13:18:09.008Z,98955.51
2023-03-25T13:21:24.728Z,98958.45
2023-03-25T13:24:07.384Z,98947.05
2023-03-25T13:26:42.115Z,98944.20
2023-03-25T13:29:45.946Z,98935.88
2023-03-25T13:32:35.101Z,98933.14
2023-03-25T13:35:38.863Z,98942.32
2023-03-25T13:38:22.705Z,98940.00
2023-03-25T13:41:34.164Z,98939.39
2023-03-25T13:44:13.744Z,98930.77
2023-03-25T13:46:56.155Z,98927.73
2023-03-25T13:49:44.587Z,98924.73
2023-03-25T13:52:18.376Z,98919.70
2023-03-25T13:54:57.617Z,98911.08
2023-03-25T13:58:03.812Z,98909.29
2023-03-25T14:00:41.872Z,98910.28
2023-03-25T14:03:34.585Z,98905.96
2023-03-25T14:06:51.925Z,98898.16
2023-03-25T14:10:02.176Z,98900.89
2023-03-25T14:12:43.937Z,98897.84
2023-03-25T14:15:23.698Z,98890.86
2023-03-25T14:17:57.720Z,98883.81
2023-03-25T14:20:34.571Z,98880.77
2023-03-25T14:23:20.118Z,98878.54
2023-03-25T14:25:58.476Z,98876.42
2023-03-25T14:28:43.223Z,98869.12
2023-03-25T14:34:14.125Z,98871.77
2023-03-25T14:36:52.085Z,98866.05
2023-03-25T14:39:52.882Z,98867.32
2023-03-25T14:42:42.803Z,98865.84
2023-03-25T14:45:43.506Z,98864.95
2023-03-25T14:48:26.231Z,98865.81
2023-03-25T14:51:29.238Z,98860.81
2023-03-25T14:54:26.378Z,98859.95
2023-03-25T14:57:04.499Z,98860.66
2023-03-25T14:59:46.909Z,98857.26
2023-03-25T15:02:33.007Z,98858.44
2023-03-25T15:05:28.386Z,98851.53
2023-03-25T15:08:12.093Z,98844.88
2023-03-25T15:10:52.844Z,98849.79
2023-03-25T15:13:32.382Z,98847.14
2023-03-25T15:16:08.908Z,98841.77
2023-03-25T15:18:48.576Z,98839.09
2023-03-25T15:21:26.696Z,98834.02
2023-03-25T15:24:09.136Z,98828.55
2023-03-25T15:26:44.881Z,98823.62
2023-03-25T15:29:31.754Z,98828.75
2023-03-25T15:32:37.049Z,98826.65
2023-03-25T15:35:33.432Z,98826.19
2023-03-25T15:38:47.154Z,98827.45
2023-03-25T15:42:07.333Z,98825.11
2023-03-25T15:45:19.673Z,98820.75
2023-03-25T15:48:06.038Z,98815.38
2023-03-25T15:51:07.250Z,98812.42
2023-03-25T15:53:56.214Z,98810.08
2023-03-25T15:56:48.134Z,98804.16
2023-03-25T15:59:42.844Z,98800.97
2023-03-25T16:02:21.134Z,98792.85
2023-03-25T16:04:53.864Z,98798.09
2023-03-25T16:07:29.650Z,98801.41
2023-03-25T16:10:34.739Z,98800.25
2023-03-25T16:13:16.034Z,98801.66
2023-03-25T16:15:49.167Z,98805.69
2023-03-25T16:18:22.452Z,98808.62
2023-03-25T16:21:00.568Z,98811.03
2023-03-25T16:23:33.193Z,98805.57
2023-03-25T16:26:26.191Z,98801.98
2023-03-25T16:29:02.625Z,98792.03
2023-03-25T16:31:37.931Z,98803.08
2023-03-25T16:34:17.412Z,98803.42
2023-03-25T16:36:51.851Z,98805.30
2023-03-25T16:39:28.897Z,98807.83
2023-03-25T16:42:08.310Z,98804.25
2023-03-25T16:44:42.514Z,98804.25
2023-03-25T16:47:15.964Z,98811.93
2023-03-25T16:49:49.811Z,98803.73
2023-03-25T16:52:28.654Z,98799.33
2023-03-25T16:55:06.105Z,98810.05
2023-03-25T16:57:41.164Z,98801.00
2023-03-25T17:00:20.625Z,98801.31
2023-03-25T17:02:54.209Z,98803.73
2023-03-25T17:05:29.021Z,98795.94
2023-03-25T17:08:08.322Z,98792.34
2023-03-25T17:10:55.356Z,98788.80
2023-03-25T17:13:33.100Z,98788.13
2023-03-25T17:16:10.655Z,98786.45
2023-03-25T17:18:44.207Z,98793.59
2023-03-25T17:21:30.373Z,98794.65
2023-03-25T17:24:24.416Z,98789.07
2023-03-25T17:27:27.165Z,98785.99
2023-03-25T17:30:01.691Z,98779.36
2023-03-25T17:32:39.331Z,98778.39
2023-03-25T17:35:28.211Z,98780.69
2023-03-25T17:38:01.238Z,98783.81
2023-03-25T17:40:34.031Z,98788.42
2023-03-25T17:43:06.379Z,98783.70
2023-03-25T17:45:39.348Z,98797.86
2023-03-25T17:48:17.127Z,98785.77
2023-03-25T17:50:55.679Z,98785.26
2023-03-25T17:53:28.427Z,98786.08
2023-03-25T17:56:02.856Z,98796.30
2023-03-25T17:58:35.768Z,98797.00
2023-03-25T18:01:12.786Z,98784.16
2023-03-25T18:03:46.039Z,98780.85
2023-03-25T18:06:19.357Z,98778.17
2023-03-25T18:08:52.195Z,98777.61
2023-03-25T18:11:24.777Z,98767.40
2023-03-25T18:13:57.962Z,98752.41
2023-03-25T18:16:31.039Z,98754.02
2023-03-25T18:19:03.608Z,98741.30
2023-03-25T18:21:37.651Z,98756.88
2023-03-25T18:24:11.373Z,98740.59
2023-03-25T18:26:44.380Z,98722.89
2023-03-25T18:29:39.651Z,98729.34
2023-03-25T18:32:12.733Z,98745.43
2023-03-25T18:34:47.692Z,98730.81
2023-03-25T18:37:20.368Z,98722.25
2023-03-25T18:39:54.017Z,98742.70
2023-03-25T18:42:26.785Z,98739.89
2023-03-25T18:44:59.245Z,98728.13
2023-03-25T18:47:32.861Z,98740.55
2023-03-25T18:50:19.687Z,98740.36
2023-03-25T18:52:53.174Z,98742.70
2023-03-25T18:55:27.398Z,98733.47
2023-03-25T18:58:00.412Z,98744.92
2023-03-25T19:00:37.744Z,98751.73
2023-03-25T19:03:11.547Z,98741.34
2023-03-25T19:05:45.744Z,98747.11
2023-03-25T19:08:40.507Z,98761.41
2023-03-25T19:11:20.786Z,98755.30
2023-03-25T19:13:48.195Z,98745.63
2023-03-25T19:16:21.733Z,98743.25
2023-03-25T19:18:54.839Z,98734.33
2023-03-25T19:21:27.666Z,98728.02
2023-03-25T19:24:01.045Z,98723.80
2023-03-25T19:26:33.964Z,98719.52
2023-03-25T19:29:08.904Z,98723.69
2023-03-25T19:31:42.614Z,98722.16
2023-03-25T19:34:16.823Z,98727.59
2023-03-25T19:36:50.919Z,98727.38
2023-03-25T19:39:23.956Z,98724.97
2023-03-25T19:41:58.287Z,98723.77
2023-03-25T19:44:33.470Z,98715.20
2023-03-25T19:47:07.371Z,98715.99
2023-03-25T19:49:40.533Z,98702.99
2023-03-25T19:52:13.227Z,98692.92
2023-03-25T19:54:47.102Z,98701.73
2023-03-25T19:57:20.453Z,98705.55
2023-03-25T19:59:53.707Z,98704.72
2023-03-25T20:02:26.744Z,98716.80
2023-03-25T20:04:59.239Z,98713.50
2023-03-25T20:07:32.795Z,98710.83
2023-03-25T20:10:19.006Z,98715.71
2023-03-25T20:12:42.239Z,98709.20
2023-03-25T20:15:16.630Z,98708.89
2023-03-25T20:17:53.879Z,98696.75
2023-03-25T20:20:27.718Z,98681.44
2023-03-25T20:23:00.336Z,98672.37
2023-03-25T20:25:33.335Z,98670.94
2023-03-25T20:28:07.133Z,98653.34
2023-03-25T20:30:39.676Z,98651.93
2023-03-25T20:33:13.321Z,98648.50
2023-03-25T20:35:46.815Z,98643.91
2023-03-25T20:38:21.650Z,98646.20
2023-03-25T20:40:57.582Z,98636.35
2023-03-25T20:43:31.542Z,98642.42
2023-03-25T20:46:04.125Z,98646.33
2023-03-25T20:48:38.877Z,98635.39
2023-03-25T20:51:13.438Z,98642.31
2023-03-25T20:53:47.271Z,98646.11
2023-03-25T20:59:05.879Z,98644.14
2023-03-25T21:01:38.960Z,98630.14
2023-03-25T21:04:13.510Z,98627.80
2023-03-25T21:06:46.956Z,98618.33
2023-03-25T21:09:19.690Z,98619.34
2023-03-25T21:11:52.238Z,98611.17
2023-03-25T21:14:25.201Z,98593.34
2023-03-25T21:16:58.310Z,98603.31
2023-03-25T21:19:32.374Z,98604.36
2023-03-25T21:22:04.848Z,98597.02
2023-03-25T21:24:37.747Z,98600.09
2023-03-25T21:27:10.465Z,98589.83
2023-03-25T21:29:43.510Z,98587.42
2023-03-25T21:32:16.946Z,98596.38
2023-03-25T21:34:50.102Z,98578.08
2023-03-25T21:37:22.809Z,98580.20
2023-03-25T21:39:57.092Z,98578.95
2023-03-25T21:42:29.674Z,98575.88
2023-03-25T21:45:02.744Z,98569.77
2023-03-25T21:47:36.460Z,98569.42
2023-03-25T21:50:11.202Z,98564.03
2023-03-25T21:52:49.190Z,98564.41
2023-03-25T21:55:22.747Z,98556.31
2023-03-25T21:57:56.650Z,98563.54
2023-03-25T22:00:29.972Z,98565.97
2023-03-25T22:03:03.278Z,98568.73
2023-03-25T22:05:36.247Z,98555.52
2023-03-25T22:08:09.586Z,98554.16
2023-03-25T22:10:43.080Z,98553.34
2023-03-25T22:13:15.977Z,98552.91
2023-03-25T22:15:49.081Z,98553.59
2023-03-25T22:18:21.874Z,98555.27
2023-03-25T22:20:54.567Z,98554.20
2023-03-25T22:23:27.372Z,98550.98
2023-03-25T22:25:59.925Z,98552.84
2023-03-25T22:28:33.104Z,98552.80
2023-03-25T22:31:20.126Z,98553.30
2023-03-25T22:33:55.855Z,98542.95
2023-03-25T22:36:28.529Z,98539.51
2023-03-25T22:39:01.523Z,98548.52
2023-03-25T22:41:35.868Z,98553.09
2023-03-25T22:44:08.275Z,98548.95
2023-03-25T22:46:41.460Z,98542.78
2023-03-25T22:49:14.498Z,98546.55
2023-03-25T22:51:48.486Z,98545.86
2023-03-25T22:54:21.147Z,98546.97
2023-03-25T22:56:53.672Z,98549.82
2023-03-25T22:59:26.457Z,98546.91
2023-03-25T23:01:59.270Z,98544.00
2023-03-25T23:04:32.671Z,98543.25
2023-03-25T23:07:08.377Z,98543.23
2023-03-25T23:09:44.226Z,98550.51
2023-03-25T23:12:20.538Z,98551.74
2023-03-25T23:14:56.163Z,98554.14
2023-03-25T23:17:30.067Z,98535.78
2023-03-25T23:20:03.241Z,98549.77
2023-03-25T23:22:36.530Z,98540.36
2023-03-25T23:25:10.107Z,98536.84
2023-03-25T23:27:44.359Z,98538.87
2023-03-25T23:30:17.407Z,98536.97
2023-03-25T23:32:49.905Z,98530.55
2023-03-25T23:35:23.269Z,98531.91
2023-03-25T23:37:55.965Z,98527.51
2023-03-25T23:40:28.529Z,98525.64
2023-03-25T23:43:02.271Z,98523.97
2023-03-25T23:45:37.095Z,98531.27
2023-03-25T23:48:09.667Z,98518.36
2023-03-25T23:50:43.838Z,98527.88
2023-03-25T23:53:16.150Z,98527.56
2023-03-25T23:55:51.500Z,98520.95
2023-03-25T23:58:25.596Z,98523.54
